createdAt,value
2022-09-06T00:01:14.702Z,100596.38
2022-09-06T00:03:43.552Z,100602.22
2022-09-06T00:06:15.998Z,100586.09
2022-09-06T00:08:46.127Z,100579.06
2022-09-06T00:11:15.337Z,100587.75
2022-09-06T00:13:43.966Z,100581.13
2022-09-06T00:16:19.781Z,100571.38
2022-09-06T00:18:48.441Z,100568.66
2022-09-06T00:21:27.493Z,100582.03
2022-09-06T00:23:56.520Z,100581.44
2022-09-06T00:26:25.746Z,100586.78
2022-09-06T00:28:54.571Z,100591.41
2022-09-06T00:31:26.054Z,100582.28
2022-09-06T00:33:54.953Z,100586.66
2022-09-06T00:36:25.358Z,100586.06
2022-09-06T00:38:53.906Z,100591.41
2022-09-06T00:41:22.340Z,100592.69
2022-09-06T00:43:50.727Z,100601.56
2022-09-06T00:46:25.687Z,100605.53
2022-09-06T00:49:10.460Z,100604.09
2022-09-06T00:51:40.449Z,100602.84
2022-09-06T00:54:10.127Z,100595.63
2022-09-06T00:56:43.315Z,100599.19
2022-09-06T00:59:12.048Z,100592.34
2022-09-06T01:01:40.513Z,100598.81
2022-09-06T01:04:09.108Z,100596.13
2022-09-06T01:07:02.411Z,100588.91
2022-09-06T01:10:03.351Z,100597.19
2022-09-06T01:13:20.663Z,100587.47
2022-09-06T01:16:14.319Z,100599.91
2022-09-06T01:18:42.742Z,100599.34
2022-09-06T01:21:27.041Z,100598.69
2022-09-06T01:24:19.966Z,100596.22
2022-09-06T01:27:36.211Z,100599.50
2022-09-06T01:30:10.695Z,100596.00
2022-09-06T01:33:21.368Z,100598.50
2022-09-06T01:36:01.038Z,100594.38
2022-09-06T01:38:30.327Z,100583.59
2022-09-06T01:40:58.699Z,100582.56
2022-09-06T01:43:36.048Z,100577.34
2022-09-06T01:46:40.238Z,100585.88
2022-09-06T01:50:01.067Z,100578.81
2022-09-06T01:52:50.909Z,100574.94
2022-09-06T01:55:44.474Z,100581.13
2022-09-06T01:58:16.060Z,100574.97
2022-09-06T02:01:21.495Z,100573.72
2022-09-06T02:04:06.859Z,100576.44
2022-09-06T02:06:46.366Z,100576.44
2022-09-06T02:09:23.897Z,100582.03
2022-09-06T02:12:00.179Z,100577.28
2022-09-06T02:14:44.631Z,100581.25
2022-09-06T02:17:17.232Z,100576.47
2022-09-06T02:20:07.047Z,100578.72
2022-09-06T02:22:41.620Z,100579.75
2022-09-06T02:25:16.587Z,100577.72
2022-09-06T02:27:44.986Z,100582.69
2022-09-06T02:30:13.732Z,100579.56
2022-09-06T02:32:57.616Z,100580.41
2022-09-06T02:35:26.200Z,100572.31
2022-09-06T02:37:54.821Z,100579.34
2022-09-06T02:40:23.665Z,100584.75
2022-09-06T02:42:53.568Z,100582.47
2022-09-06T02:45:22.158Z,100585.59
2022-09-06T02:47:50.550Z,100587.06
2022-09-06T02:50:19.023Z,100587.25
2022-09-06T02:52:47.360Z,100596.78
2022-09-06T02:55:15.551Z,100604.44
2022-09-06T02:57:43.911Z,100600.09
2022-09-06T03:00:12.841Z,100606.09
2022-09-06T03:02:41.005Z,100598.88
2022-09-06T03:05:09.764Z,100605.69
2022-09-06T03:07:38.250Z,100592.22
2022-09-06T03:10:07.080Z,100594.31
2022-09-06T03:12:35.553Z,100597.84
2022-09-06T03:15:03.969Z,100584.56
2022-09-06T03:17:32.430Z,100595.94
2022-09-06T03:20:00.871Z,100591.63
2022-09-06T03:22:29.622Z,100594.31
2022-09-06T03:24:58.288Z,100589.75
2022-09-06T03:27:26.723Z,100597.19
2022-09-06T03:29:55.109Z,100587.06
2022-09-06T03:32:23.578Z,100585.41
2022-09-06T03:34:52.086Z,100584.16
2022-09-06T03:37:20.666Z,100570.09
2022-09-06T03:39:49.450Z,100568.22
2022-09-06T03:42:18.044Z,100558.91
2022-09-06T03:44:46.492Z,100558.06
2022-09-06T03:47:19.295Z,100565.97
2022-09-06T03:49:48.523Z,100561.19
2022-09-06T03:52:17.277Z,100540.50
2022-09-06T03:54:45.754Z,100533.25
2022-09-06T03:57:14.165Z,100529.91
2022-09-06T03:59:42.541Z,100547.53
2022-09-06T04:02:11.192Z,100536.56
2022-09-06T04:04:39.570Z,100533.25
2022-09-06T04:07:07.966Z,100530.97
2022-09-06T04:09:36.319Z,100521.44
2022-09-06T04:12:05.085Z,100521.66
2022-09-06T04:14:33.749Z,100528.69
2022-09-06T04:17:02.210Z,100524.94
2022-09-06T04:19:30.604Z,100521.25
2022-09-06T04:21:58.980Z,100511.50
2022-09-06T04:24:27.355Z,100510.06
2022-09-06T04:26:55.923Z,100498.06
2022-09-06T04:29:24.660Z,100512.56
2022-09-06T04:31:54.250Z,100507.38
2022-09-06T04:34:22.643Z,100516.69
2022-09-06T04:36:51.235Z,100510.91
2022-09-06T04:39:19.637Z,100508.22
2022-09-06T04:41:48.205Z,100507.78
2022-09-06T04:44:16.547Z,100519.38
2022-09-06T04:46:44.988Z,100508.41
2022-09-06T04:49:13.416Z,100513.78
2022-09-06T04:51:41.824Z,100515.44
2022-09-06T04:54:10.286Z,100523.50
2022-09-06T04:56:38.742Z,100522.91
2022-09-06T04:59:07.091Z,100523.09
2022-09-06T05:01:35.545Z,100524.94
2022-09-06T05:04:04.093Z,100524.34
2022-09-06T05:06:32.432Z,100529.72
2022-09-06T05:09:01.018Z,100521.44
2022-09-06T05:11:29.391Z,100527.88
2022-09-06T05:13:57.776Z,100532.84
2022-09-06T05:16:26.384Z,100533.66
2022-09-06T05:18:54.850Z,100552.50
2022-09-06T05:21:23.251Z,100542.75
2022-09-06T05:23:55.414Z,100547.13
2022-09-06T05:26:26.353Z,100554.13
2022-09-06T05:28:54.762Z,100554.13
2022-09-06T05:31:31.941Z,100542.16
2022-09-06T05:34:00.902Z,100545.88
2022-09-06T05:36:30.931Z,100534.06
2022-09-06T05:38:59.787Z,100537.16
2022-09-06T05:41:28.662Z,100529.31
2022-09-06T05:43:57.077Z,100527.44
2022-09-06T05:46:26.660Z,100521.66
2022-09-06T05:48:59.794Z,100516.06
2022-09-06T05:51:28.196Z,100511.50
2022-09-06T05:53:56.633Z,100513.16
2022-09-06T05:56:24.850Z,100514.41
2022-09-06T05:58:53.191Z,100517.72
2022-09-06T06:01:21.552Z,100510.66
2022-09-06T06:04:08.074Z,100508.81
2022-09-06T06:06:36.766Z,100514.19
2022-09-06T06:09:05.518Z,100515.03
2022-09-06T06:11:34.136Z,100512.56
2022-09-06T06:14:03.522Z,100507.97
2022-09-06T06:16:32.629Z,100518.53
2022-09-06T06:19:01.047Z,100512.53
2022-09-06T06:21:32.303Z,100521.25
2022-09-06T06:24:05.611Z,100529.09
2022-09-06T06:26:37.264Z,100541.50
2022-09-06T06:29:09.481Z,100527.22
2022-09-06T06:31:39.470Z,100529.72
2022-09-06T06:34:08.188Z,100523.69
2022-09-06T06:36:37.726Z,100529.50
2022-09-06T06:39:09.135Z,100531.78
2022-09-06T06:41:37.848Z,100529.72
2022-09-06T06:44:06.974Z,100529.72
2022-09-06T06:46:38.270Z,100529.91
2022-09-06T06:49:06.962Z,100527.03
2022-09-06T06:51:37.976Z,100529.06
2022-09-06T06:54:06.774Z,100527.44
2022-09-06T06:56:38.779Z,100522.03
2022-09-06T06:59:08.183Z,100526.38
2022-09-06T07:01:37.904Z,100529.69
2022-09-06T07:04:07.204Z,100522.00
2022-09-06T07:12:25.740Z,100519.47
2022-09-06T07:14:54.105Z,100526.53
2022-09-06T07:17:22.534Z,100522.16
2022-09-06T07:22:40.346Z,100538.72
2022-09-06T07:25:12.187Z,100542.22
2022-09-06T07:27:47.811Z,100537.66
2022-09-06T07:30:16.880Z,100540.38
2022-09-06T07:32:45.255Z,100546.34
2022-09-06T07:35:14.283Z,100537.78
2022-09-06T07:37:42.807Z,100534.41
2022-09-06T07:40:11.745Z,100533.69
2022-09-06T07:42:40.246Z,100533.25
2022-09-06T07:45:08.893Z,100528.50
2022-09-06T07:53:20.489Z,100546.66
2022-09-06T07:55:54.537Z,100532.53
2022-09-06T07:58:22.893Z,100545.97
2022-09-06T08:00:51.271Z,100547.34
2022-09-06T08:03:20.061Z,100545.06
2022-09-06T08:11:26.377Z,100545.00
2022-09-06T08:13:56.120Z,100540.03
2022-09-06T08:16:27.962Z,100543.28
2022-09-06T08:19:02.033Z,100540.00
2022-09-06T08:21:33.200Z,100539.69
2022-09-06T08:24:04.782Z,100546.91
2022-09-06T08:26:35.485Z,100543.81
2022-09-06T08:29:07.626Z,100550.25
2022-09-06T08:31:39.629Z,100543.63
2022-09-06T08:34:08.248Z,100536.06
2022-09-06T08:36:37.106Z,100535.41
2022-09-06T08:39:09.068Z,100537.59
2022-09-06T08:42:01.585Z,100527.78
2022-09-06T08:47:23.391Z,100521.19
2022-09-06T08:50:07.197Z,100518.44
2022-09-06T08:53:18.094Z,100520.09
2022-09-06T08:55:50.314Z,100524.94
2022-09-06T08:58:34.151Z,100528.84
2022-09-06T09:01:13.296Z,100519.28
2022-09-06T09:03:44.060Z,100523.81
2022-09-06T09:06:12.606Z,100526.19
2022-09-06T09:09:04.636Z,100520.56
2022-09-06T09:11:33.591Z,100503.13
2022-09-06T09:14:23.793Z,100502.78
2022-09-06T09:17:02.065Z,100500.63
2022-09-06T09:19:33.469Z,100491.13
2022-09-06T09:22:01.970Z,100498.31
2022-09-06T09:24:31.450Z,100490.81
2022-09-06T09:27:08.661Z,100488.00
2022-09-06T09:32:47.569Z,100481.75
2022-09-06T09:35:36.777Z,100476.50
2022-09-06T09:38:22.369Z,100482.84
2022-09-06T09:40:57.173Z,100464.81
2022-09-06T09:43:27.709Z,100473.53
2022-09-06T09:46:15.856Z,100470.09
2022-09-06T09:49:02.370Z,100463.41
2022-09-06T09:51:32.779Z,100453.59
2022-09-06T09:54:05.006Z,100447.47
2022-09-06T09:56:43.570Z,100443.91
2022-09-06T09:59:40.578Z,100442.59
2022-09-06T10:02:35.764Z,100436.22
2022-09-06T10:05:10.962Z,100429.75
2022-09-06T10:07:53.845Z,100418.75
2022-09-06T10:10:35.427Z,100428.16
2022-09-06T10:13:20.140Z,100424.31
2022-09-06T10:15:49.655Z,100411.69
2022-09-06T10:18:42.462Z,100414.97
2022-09-06T10:21:22.433Z,100414.78
2022-09-06T10:26:59.564Z,100417.13
2022-09-06T10:29:53.096Z,100419.41
2022-09-06T10:32:51.193Z,100426.59
2022-09-06T10:35:39.319Z,100417.19
2022-09-06T10:38:27.023Z,100407.69
2022-09-06T10:41:34.970Z,100409.63
2022-09-06T10:44:21.112Z,100414.59
2022-09-06T10:46:56.935Z,100422.25
2022-09-06T10:49:25.481Z,100430.78
2022-09-06T10:52:02.666Z,100430.66
2022-09-06T10:54:34.754Z,100433.22
2022-09-06T11:00:12.900Z,100450.66
2022-09-06T11:06:08.877Z,100443.81
2022-09-06T11:09:11.742Z,100450.25
2022-09-06T11:11:54.880Z,100458.81
2022-09-06T11:14:26.762Z,100464.50
2022-09-06T11:17:11.163Z,100465.91
2022-09-06T11:20:07.008Z,100462.59
2022-09-06T11:22:44.824Z,100465.81
2022-09-06T11:25:52.104Z,100462.78
2022-09-06T11:28:31.794Z,100472.25
2022-09-06T11:31:00.518Z,100472.69
2022-09-06T11:33:35.567Z,100467.25
2022-09-06T11:36:40.133Z,100464.28
2022-09-06T11:39:10.713Z,100466.75
2022-09-06T11:41:42.612Z,100467.59
2022-09-06T11:44:12.088Z,100462.72
2022-09-06T11:46:43.168Z,100444.56
2022-09-06T11:49:34.681Z,100442.00
2022-09-06T11:52:03.712Z,100451.38
2022-09-06T11:54:53.553Z,100448.53
2022-09-06T11:57:27.540Z,100449.78
2022-09-06T12:00:01.669Z,100451.78
2022-09-06T12:02:38.640Z,100445.66
2022-09-06T12:05:08.097Z,100449.75
2022-09-06T12:08:02.621Z,100453.50
2022-09-06T12:10:31.012Z,100447.53
2022-09-06T12:13:00.147Z,100437.03
2022-09-06T12:15:32.244Z,100436.25
2022-09-06T12:18:01.592Z,100434.09
2022-09-06T12:20:54.942Z,100426.47
2022-09-06T12:23:37.886Z,100423.00
2022-09-06T12:26:11.272Z,100429.66
2022-09-06T12:28:52.055Z,100418.53
2022-09-06T12:32:01.748Z,100421.56
2022-09-06T12:34:35.921Z,100430.81
2022-09-06T12:37:07.833Z,100429.97
2022-09-06T12:39:36.571Z,100428.56
2022-09-06T12:42:14.016Z,100413.59
2022-09-06T12:44:51.119Z,100412.13
2022-09-06T12:47:34.076Z,100405.00
2022-09-06T12:50:25.240Z,100398.09
2022-09-06T12:52:58.065Z,100392.09
2022-09-06T12:55:38.695Z,100387.19
2022-09-06T12:58:11.675Z,100383.63
2022-09-06T13:00:52.101Z,100386.56
2022-09-06T13:03:36.969Z,100376.81
2022-09-06T13:06:07.849Z,100376.53
2022-09-06T13:08:51.389Z,100372.13
2022-09-06T13:11:38.557Z,100373.47
2022-09-06T13:14:27.989Z,100366.91
2022-09-06T13:16:57.913Z,100362.53
2022-09-06T13:19:40.452Z,100366.38
2022-09-06T13:22:11.631Z,100359.59
2022-09-06T13:24:45.968Z,100360.72
2022-09-06T13:27:31.324Z,100354.63
2022-09-06T13:30:02.975Z,100354.13
2022-09-06T13:32:31.681Z,100354.13
2022-09-06T13:35:01.422Z,100360.41
2022-09-06T13:37:33.872Z,100361.91
2022-09-06T13:40:05.101Z,100361.66
2022-09-06T13:42:37.787Z,100359.69
2022-09-06T13:45:29.997Z,100369.44
2022-09-06T13:48:13.102Z,100369.72
2022-09-06T13:50:46.783Z,100363.13
2022-09-06T13:53:21.077Z,100367.25
2022-09-06T13:55:49.439Z,100369.97
2022-09-06T13:58:17.856Z,100377.03
2022-09-06T14:00:46.987Z,100369.84
2022-09-06T14:03:28.321Z,100368.75
2022-09-06T14:05:56.658Z,100374.44
2022-09-06T14:08:31.390Z,100370.84
2022-09-06T14:11:10.489Z,100371.66
2022-09-06T14:13:38.870Z,100376.28
2022-09-06T14:16:07.846Z,100370.66
2022-09-06T14:18:36.302Z,100376.09
2022-09-06T14:21:05.488Z,100369.31
2022-09-06T14:23:34.243Z,100373.91
2022-09-06T14:26:04.359Z,100377.78
2022-09-06T14:28:38.410Z,100375.28
2022-09-06T14:31:18.839Z,100379.75
2022-09-06T14:33:47.284Z,100376.75
2022-09-06T14:36:19.137Z,100366.28
2022-09-06T14:38:48.038Z,100375.06
2022-09-06T14:41:17.849Z,100367.81
2022-09-06T14:43:51.062Z,100357.28
2022-09-06T14:46:22.099Z,100360.59
2022-09-06T14:48:56.773Z,100355.16
2022-09-06T14:51:26.010Z,100360.84
2022-09-06T14:53:59.133Z,100353.75
2022-09-06T14:56:27.988Z,100357.28
2022-09-06T14:58:57.592Z,100349.94
2022-09-06T15:01:32.914Z,100349.53
2022-09-06T15:04:06.903Z,100341.06
2022-09-06T15:06:39.207Z,100334.56
2022-09-06T15:09:08.045Z,100342.69
2022-09-06T15:11:43.474Z,100338.31
2022-09-06T15:14:23.158Z,100335.31
2022-09-06T15:16:55.984Z,100338.09
2022-09-06T15:19:26.000Z,100341.47
2022-09-06T15:21:55.279Z,100345.22
2022-09-06T15:24:23.892Z,100345.16
2022-09-06T15:26:52.544Z,100340.00
2022-09-06T15:29:21.477Z,100335.31
2022-09-06T15:31:51.971Z,100329.88
2022-09-06T15:34:24.741Z,100333.94
2022-09-06T15:36:54.484Z,100334.44
2022-09-06T15:39:23.127Z,100339.25
2022-09-06T15:41:52.002Z,100321.75
2022-09-06T15:44:21.843Z,100342.16
2022-09-06T15:46:59.270Z,100321.66
2022-09-06T15:49:32.917Z,100319.91
2022-09-06T15:52:05.994Z,100318.25
2022-09-06T15:54:51.873Z,100309.25
2022-09-06T15:57:20.259Z,100305.38
2022-09-06T15:59:49.146Z,100309.34
2022-09-06T16:02:17.984Z,100303.88
2022-09-06T16:04:47.298Z,100307.34
2022-09-06T16:07:15.635Z,100299.66
2022-09-06T16:09:51.796Z,100295.31
2022-09-06T16:12:20.182Z,100292.56
2022-09-06T16:14:48.951Z,100292.63
2022-09-06T16:17:17.706Z,100294.50
2022-09-06T16:19:46.363Z,100288.97
2022-09-06T16:22:14.967Z,100285.53
2022-09-06T16:24:43.412Z,100279.16
2022-09-06T16:27:12.153Z,100282.84
2022-09-06T16:29:40.530Z,100284.13
2022-09-06T16:32:10.046Z,100281.13
2022-09-06T16:34:38.471Z,100283.53
2022-09-06T16:37:08.091Z,100280.25
2022-09-06T16:39:37.723Z,100278.59
2022-09-06T16:42:06.444Z,100279.59
2022-09-06T16:44:34.815Z,100287.50
2022-09-06T16:47:04.177Z,100279.41
2022-09-06T16:49:32.753Z,100278.34
2022-09-06T16:52:01.139Z,100281.81
2022-09-06T16:54:29.640Z,100276.06
2022-09-06T16:56:58.042Z,100277.72
2022-09-06T16:59:26.452Z,100279.59
2022-09-06T17:01:56.278Z,100279.28
2022-09-06T17:04:24.806Z,100276.56
2022-09-06T17:06:53.256Z,100272.53
2022-09-06T17:09:21.786Z,100284.16
2022-09-06T17:11:50.890Z,100282.59
2022-09-06T17:14:19.910Z,100278.22
2022-09-06T17:17:02.334Z,100271.97
2022-09-06T17:19:31.393Z,100265.31
2022-09-06T17:22:00.040Z,100258.50
2022-09-06T17:24:28.779Z,100251.44
2022-09-06T17:26:57.158Z,100254.38
2022-09-06T17:29:26.698Z,100259.97
2022-09-06T17:31:55.271Z,100257.13
2022-09-06T17:34:23.807Z,100253.28
2022-09-06T17:36:52.212Z,100260.25
2022-09-06T17:39:21.960Z,100265.34
2022-09-06T17:41:53.663Z,100249.97
2022-09-06T17:44:25.447Z,100265.25
2022-09-06T17:47:11.819Z,100259.38
2022-09-06T17:49:41.713Z,100262.59
2022-09-06T17:52:10.185Z,100266.38
2022-09-06T17:54:38.591Z,100260.63
2022-09-06T17:57:07.172Z,100266.22
2022-09-06T17:59:36.224Z,100262.91
2022-09-06T18:02:06.517Z,100257.75
2022-09-06T18:04:35.057Z,100259.53
2022-09-06T18:07:13.605Z,100271.09
2022-09-06T18:09:42.690Z,100272.06
2022-09-06T18:12:11.145Z,100265.75
2022-09-06T18:14:39.860Z,100270.34
2022-09-06T18:17:09.423Z,100261.88
2022-09-06T18:19:38.588Z,100270.22
2022-09-06T18:22:16.536Z,100264.47
2022-09-06T18:24:45.144Z,100265.22
2022-09-06T18:27:13.660Z,100267.06
2022-09-06T18:29:42.099Z,100261.88
2022-09-06T18:32:10.839Z,100263.78
2022-09-06T18:34:39.386Z,100256.38
2022-09-06T18:37:23.905Z,100262.34
2022-09-06T18:39:52.429Z,100270.63
2022-09-06T18:42:20.955Z,100264.06
2022-09-06T18:44:52.245Z,100273.72
2022-09-06T18:47:22.394Z,100276.31
2022-09-06T18:49:50.931Z,100275.97
2022-09-06T18:52:20.752Z,100280.25
2022-09-06T18:54:50.304Z,100275.31
2022-09-06T18:57:18.817Z,100281.19
2022-09-06T18:59:47.212Z,100277.06
2022-09-06T19:02:16.001Z,100271.56
2022-09-06T19:04:46.005Z,100279.09
2022-09-06T19:07:19.945Z,100273.91
2022-09-06T19:09:48.334Z,100278.16
2022-09-06T19:12:16.765Z,100285.44
2022-09-06T19:14:45.251Z,100290.63
2022-09-06T19:17:13.622Z,100291.81
2022-09-06T19:19:42.065Z,100297.00
2022-09-06T19:22:10.599Z,100290.75
2022-09-06T19:24:39.961Z,100290.06
2022-09-06T19:27:08.385Z,100285.38
2022-09-06T19:29:37.206Z,100286.28
2022-09-06T19:32:06.383Z,100283.66
2022-09-06T19:34:34.862Z,100278.50
2022-09-06T19:37:03.434Z,100272.97
2022-09-06T19:39:36.392Z,100270.38
2022-09-06T19:42:05.909Z,100266.53
2022-09-06T19:44:34.623Z,100265.81
2022-09-06T19:47:03.252Z,100265.56
2022-09-06T19:49:31.866Z,100265.78
2022-09-06T19:52:00.273Z,100258.84
2022-09-06T19:54:28.833Z,100262.72
2022-09-06T19:56:57.231Z,100259.28
2022-09-06T19:59:25.597Z,100257.66
2022-09-06T20:01:54.294Z,100243.44
2022-09-06T20:04:22.769Z,100245.88
2022-09-06T20:06:51.114Z,100234.59
2022-09-06T20:09:19.771Z,100240.84
2022-09-06T20:11:48.371Z,100246.94
2022-09-06T20:14:16.782Z,100235.81
2022-09-06T20:16:45.520Z,100247.84
2022-09-06T20:19:15.265Z,100233.00
2022-09-06T20:21:44.415Z,100235.09
2022-09-06T20:24:13.050Z,100241.19
2022-09-06T20:26:41.761Z,100239.34
2022-09-06T20:29:10.177Z,100244.59
2022-09-06T20:31:40.099Z,100242.97
2022-09-06T20:34:08.754Z,100243.16
2022-09-06T20:36:37.857Z,100233.41
2022-09-06T20:39:06.520Z,100225.78
2022-09-06T20:41:35.420Z,100236.22
2022-09-06T20:44:04.433Z,100235.25
2022-09-06T20:46:36.132Z,100233.59
2022-09-06T20:49:05.633Z,100235.72
2022-09-06T20:51:36.042Z,100233.69
2022-09-06T20:54:06.206Z,100233.09
2022-09-06T20:56:38.671Z,100216.06
2022-09-06T20:59:12.995Z,100216.06
2022-09-06T21:01:48.450Z,100219.25
2022-09-06T21:04:18.158Z,100211.38
2022-09-06T21:06:46.921Z,100222.84
2022-09-06T21:09:16.198Z,100222.28
2022-09-06T21:11:45.233Z,100204.88
2022-09-06T21:14:13.938Z,100211.66
2022-09-06T21:16:42.415Z,100210.44
2022-09-06T21:19:12.528Z,100219.22
2022-09-06T21:21:41.686Z,100221.53
2022-09-06T21:24:11.949Z,100222.00
2022-09-06T21:26:40.977Z,100219.38
2022-09-06T21:29:12.589Z,100216.22
2022-09-06T21:31:41.175Z,100220.63
2022-09-06T21:34:16.932Z,100226.41
2022-09-06T21:36:46.144Z,100217.75
2022-09-06T21:39:14.808Z,100222.94
2022-09-06T21:41:44.551Z,100219.28
2022-09-06T21:44:13.742Z,100219.03
2022-09-06T21:46:43.020Z,100219.34
2022-09-06T21:49:14.281Z,100222.50
2022-09-06T21:51:42.940Z,100212.91
2022-09-06T21:54:11.671Z,100214.88
2022-09-06T21:56:41.093Z,100201.59
2022-09-06T21:59:10.007Z,100201.06
2022-09-06T22:01:40.197Z,100196.50
2022-09-06T22:04:10.924Z,100198.19
2022-09-06T22:06:40.701Z,100190.66
2022-09-06T22:09:12.137Z,100189.66
2022-09-06T22:11:43.200Z,100192.81
2022-09-06T22:14:15.011Z,100185.78
2022-09-06T22:16:43.836Z,100187.50
2022-09-06T22:19:12.595Z,100184.41
2022-09-06T22:21:43.794Z,100193.19
2022-09-06T22:24:14.317Z,100183.25
2022-09-06T22:26:43.196Z,100185.31
2022-09-06T22:29:13.667Z,100177.47
2022-09-06T22:31:42.875Z,100185.09
2022-09-06T22:34:12.084Z,100181.19
2022-09-06T22:36:40.903Z,100170.88
2022-09-06T22:39:09.882Z,100172.72
2022-09-06T22:41:38.471Z,100184.84
2022-09-06T22:44:07.385Z,100188.81
2022-09-06T22:46:36.116Z,100185.28
2022-09-06T22:49:05.818Z,100175.56
2022-09-06T22:51:34.721Z,100179.31
2022-09-06T22:54:03.325Z,100175.78
2022-09-06T22:56:32.187Z,100176.00
2022-09-06T22:59:01.504Z,100165.91
2022-09-06T23:01:30.479Z,100170.66
2022-09-06T23:03:58.985Z,100162.84
2022-09-06T23:06:27.712Z,100161.38
2022-09-06T23:08:56.340Z,100159.97
2022-09-06T23:11:24.894Z,100159.38
2022-09-06T23:13:57.933Z,100153.75
2022-09-06T23:16:27.643Z,100158.53
2022-09-06T23:18:59.885Z,100155.84
2022-09-06T23:21:28.717Z,100156.66
2022-09-06T23:23:58.303Z,100153.34
2022-09-06T23:26:31.292Z,100158.09
2022-09-06T23:29:02.981Z,100158.94
2022-09-06T23:31:32.823Z,100157.28
2022-09-06T23:34:02.678Z,100154.00
2022-09-06T23:36:32.089Z,100148.81
2022-09-06T23:39:02.328Z,100144.72
2022-09-06T23:41:30.976Z,100130.28
2022-09-06T23:43:59.483Z,100131.69
2022-09-06T23:46:28.675Z,100137.53
2022-09-06T23:48:57.133Z,100134.44
2022-09-06T23:51:25.669Z,100128.47
2022-09-06T23:53:54.431Z,100119.56
2022-09-06T23:56:23.136Z,100117.69
2022-09-06T23:58:51.754Z,100124.31
